Terminal Aerodrome Forecast
Issued by NWS

Home | Current Version | Previous Version | Text Only | Print | Product List | Glossary On
Versions: 1 2 3 4 5 6 7 8 9 10 11 12 13 14 15 16 17 18 19 20 21 22 23 24 25 26 27 28 29 30 31 32 33
627
FTUS44 KFWD 291128
TAFFTW
TAF
KFTW 291128Z 2912/3012 13011KT P6SM SCT100 BKN300
     FM291600 20014KT P6SM SCT300
     FM300000 30016KT P6SM BKN080=

USA.gov is the U.S. government's official web portal to all federal, state and local government web resources and services.